Time,TemperatureF,DewpointF,PressureIn,WindDirection,WindDirectionDegrees,WindSpeedMPH,WindSpeedGustMPH,Humidity,HourlyPrecipIn,Conditions,Clouds,dailyrainin,SolarRadiationWatts/m^2,SoftwareType,DateUTC
2013-02-13 00:02:00,8.0,-1.0,-100.00,NNW,332,3.0,17.0,66,0.00,,,0.03,0.000000,,2013-02-13 07:02:00,
2013-02-13 00:32:00,9.0,0.0,-100.00,North,9,6.0,13.0,66,0.00,,,0.03,0.000000,,2013-02-13 07:32:00,
2013-02-13 00:42:00,9.0,0.0,-100.00,North,9,6.0,13.0,66,0.00,,,0.03,0.000000,,2013-02-13 07:42:00,
2013-02-13 00:52:00,9.0,0.0,-100.00,North,9,6.0,13.0,66,0.00,,,0.03,0.000000,,2013-02-13 07:52:00,
2013-02-13 01:01:00,9.0,0.0,-100.00,North,9,6.0,13.0,66,0.00,,,0.03,0.000000,,2013-02-13 08:01:00,
2013-02-13 01:32:00,9.0,1.0,-100.00,NNE,28,4.0,15.0,68,0.00,,,0.03,0.000000,,2013-02-13 08:32:00,
2013-02-13 01:43:00,9.0,1.0,-100.00,NNE,28,4.0,15.0,68,0.00,,,0.03,0.000000,,2013-02-13 08:43:00,
2013-02-13 01:52:00,9.0,1.0,-100.00,NNE,28,4.0,15.0,68,0.00,,,0.03,0.000000,,2013-02-13 08:52:00,
2013-02-13 02:01:00,9.0,1.0,-100.00,NNE,28,4.0,15.0,68,0.00,,,0.03,0.000000,,2013-02-13 09:01:00,
2013-02-13 02:32:00,9.0,2.0,-100.00,NNW,346,4.0,13.0,72,0.00,,,0.03,0.000000,,2013-02-13 09:32:00,
2013-02-13 02:42:00,9.0,2.0,-100.00,NNW,346,4.0,13.0,72,0.00,,,0.03,0.000000,,2013-02-13 09:42:00,
2013-02-13 02:52:00,9.0,2.0,-100.00,NNW,346,4.0,13.0,72,0.00,,,0.03,0.000000,,2013-02-13 09:52:00,
2013-02-13 03:01:00,9.0,2.0,-100.00,NNW,346,4.0,13.0,72,0.00,,,0.03,0.000000,,2013-02-13 10:01:00,
2013-02-13 03:32:00,9.0,2.0,-100.00,NNE,17,5.0,9.0,73,0.00,,,0.03,0.000000,,2013-02-13 10:32:00,
2013-02-13 03:42:00,9.0,2.0,-100.00,NNE,17,5.0,9.0,73,0.00,,,0.03,0.000000,,2013-02-13 10:42:00,
2013-02-13 03:52:00,9.0,2.0,-100.00,NNE,17,5.0,9.0,73,0.00,,,0.03,0.000000,,2013-02-13 10:52:00,
2013-02-13 04:01:00,9.0,2.0,-100.00,NNE,17,5.0,9.0,73,0.00,,,0.03,0.000000,,2013-02-13 11:01:00,
2013-02-13 04:32:00,7.0,1.0,-100.00,NNW,347,2.0,11.0,75,0.00,,,0.03,0.000000,,2013-02-13 11:32:00,
2013-02-13 04:42:00,7.0,1.0,-100.00,NNW,347,2.0,11.0,75,0.00,,,0.03,0.000000,,2013-02-13 11:42:00,
2013-02-13 04:52:00,7.0,1.0,-100.00,NNW,347,2.0,11.0,75,0.00,,,0.03,0.000000,,2013-02-13 11:52:00,
2013-02-13 05:02:00,7.0,1.0,-100.00,NNW,347,2.0,11.0,75,0.00,,,0.03,0.000000,,2013-02-13 12:02:00,
2013-02-13 05:32:00,9.0,3.0,-100.00,North,351,5.0,10.0,76,0.00,,,0.03,0.000000,,2013-02-13 12:32:00,
2013-02-13 05:42:00,9.0,3.0,-100.00,North,351,5.0,10.0,76,0.00,,,0.03,0.000000,,2013-02-13 12:42:00,
2013-02-13 05:52:00,9.0,3.0,-100.00,North,351,5.0,10.0,76,0.00,,,0.03,0.000000,,2013-02-13 12:52:00,
2013-02-13 06:02:00,9.0,3.0,-100.00,North,351,5.0,10.0,76,0.00,,,0.03,0.000000,,2013-02-13 13:02:00,
2013-02-13 06:32:00,7.0,3.0,-100.00,NNW,348,3.0,10.0,82,0.00,,,0.03,0.000000,,2013-02-13 13:32:00,
2013-02-13 06:42:00,7.0,3.0,-100.00,NNW,348,3.0,10.0,82,0.00,,,0.03,0.000000,,2013-02-13 13:42:00,
2013-02-13 06:52:00,7.0,3.0,-100.00,NNW,348,3.0,10.0,82,0.00,,,0.03,0.000000,,2013-02-13 13:52:00,
2013-02-13 07:01:00,7.0,3.0,-100.00,NNW,348,3.0,10.0,82,0.00,,,0.03,0.000000,,2013-02-13 14:01:00,
2013-02-13 07:32:00,6.0,1.0,-100.00,NW,316,3.0,7.0,80,0.00,,,0.03,2.000000,,2013-02-13 14:32:00,
2013-02-13 07:42:00,6.0,1.0,-100.00,NW,316,3.0,7.0,80,0.00,,,0.03,2.000000,,2013-02-13 14:42:00,
2013-02-13 07:52:00,6.0,1.0,-100.00,NW,316,3.0,7.0,80,0.00,,,0.03,2.000000,,2013-02-13 14:52:00,
2013-02-13 08:01:00,6.0,1.0,-100.00,NW,316,3.0,7.0,80,0.00,,,0.03,2.000000,,2013-02-13 15:01:00,
2013-02-13 08:32:00,13.0,5.0,-100.00,NNW,345,4.0,8.0,69,0.00,,,0.03,99.000000,,2013-02-13 15:32:00,
2013-02-13 08:42:00,13.0,5.0,-100.00,NNW,345,4.0,8.0,69,0.00,,,0.03,99.000000,,2013-02-13 15:42:00,
2013-02-13 08:52:00,13.0,5.0,-100.00,NNW,345,4.0,8.0,69,0.00,,,0.03,99.000000,,2013-02-13 15:52:00,
2013-02-13 09:01:00,13.0,5.0,-100.00,NNW,345,4.0,8.0,69,0.00,,,0.03,99.000000,,2013-02-13 16:01:00,
2013-02-13 09:32:00,19.0,6.0,-100.00,North,2,5.0,12.0,55,0.00,,,0.03,295.000000,,2013-02-13 16:32:00,
2013-02-13 09:42:00,19.0,6.0,-100.00,North,2,5.0,12.0,55,0.00,,,0.03,295.000000,,2013-02-13 16:42:00,
2013-02-13 09:52:00,19.0,6.0,-100.00,North,2,5.0,12.0,55,0.00,,,0.03,295.000000,,2013-02-13 16:52:00,
2013-02-13 10:01:00,19.0,6.0,-100.00,North,2,5.0,12.0,55,0.00,,,0.03,295.000000,,2013-02-13 17:01:00,
2013-02-13 10:32:00,24.0,6.0,-100.00,NNE,28,7.0,14.0,45,0.00,,,0.03,551.000000,,2013-02-13 17:32:00,
2013-02-13 10:42:00,24.0,6.0,-100.00,NNE,28,7.0,14.0,45,0.00,,,0.03,551.000000,,2013-02-13 17:42:00,
2013-02-13 10:52:00,24.0,6.0,-100.00,NNE,28,7.0,14.0,45,0.00,,,0.03,551.000000,,2013-02-13 17:52:00,
2013-02-13 11:01:00,24.0,6.0,-100.00,NNE,28,7.0,14.0,45,0.00,,,0.03,551.000000,,2013-02-13 18:01:00,
2013-02-13 11:32:00,25.0,7.0,-100.00,North,8,13.0,27.0,45,0.00,,,-99.99,729.000000,,2013-02-13 18:32:00,
2013-02-13 11:42:00,25.0,7.0,-100.00,North,8,13.0,27.0,45,0.00,,,-99.99,729.000000,,2013-02-13 18:42:00,
2013-02-13 11:52:00,25.0,7.0,-100.00,North,8,13.0,27.0,45,0.00,,,-99.99,729.000000,,2013-02-13 18:52:00,
2013-02-13 12:01:00,25.0,7.0,-100.00,North,8,13.0,27.0,45,0.00,,,-99.99,729.000000,,2013-02-13 19:01:00,
2013-02-13 12:32:00,26.0,7.0,-100.00,NNE,12,14.0,26.0,44,0.00,,,0.03,801.000000,,2013-02-13 19:32:00,
2013-02-13 12:42:00,26.0,7.0,-100.00,NNE,12,14.0,26.0,44,0.00,,,0.03,801.000000,,2013-02-13 19:42:00,
2013-02-13 12:52:00,26.0,7.0,-100.00,NNE,12,14.0,26.0,44,0.00,,,0.03,801.000000,,2013-02-13 19:52:00,
2013-02-13 13:02:00,26.0,7.0,-100.00,NNE,12,14.0,26.0,44,0.00,,,0.03,801.000000,,2013-02-13 20:02:00,
2013-02-13 13:32:00,28.0,8.0,-100.00,NNE,15,11.0,28.0,43,0.00,,,-99.99,853.000000,,2013-02-13 20:32:00,
2013-02-13 13:42:00,28.0,8.0,-100.00,NNE,15,11.0,28.0,43,0.00,,,-99.99,853.000000,,2013-02-13 20:42:00,
2013-02-13 13:52:00,28.0,8.0,-100.00,NNE,15,11.0,28.0,43,0.00,,,-99.99,853.000000,,2013-02-13 20:52:00,
2013-02-13 14:01:00,28.0,8.0,-100.00,NNE,15,11.0,28.0,43,0.00,,,-99.99,853.000000,,2013-02-13 21:01:00,
2013-02-13 14:32:00,28.0,8.0,-100.00,NNE,16,11.0,22.0,43,0.00,,,0.01,762.000000,,2013-02-13 21:32:00,
2013-02-13 14:42:00,28.0,8.0,-100.00,NNE,16,11.0,22.0,43,0.00,,,0.01,762.000000,,2013-02-13 21:42:00,
2013-02-13 14:52:00,28.0,8.0,-100.00,NNE,16,11.0,22.0,43,0.00,,,0.01,762.000000,,2013-02-13 21:52:00,
2013-02-13 15:02:00,28.0,8.0,-100.00,NNE,16,11.0,22.0,43,0.00,,,0.01,762.000000,,2013-02-13 22:02:00,
2013-02-13 15:32:00,28.0,7.0,-100.00,NNE,15,12.0,25.0,41,0.00,,,0.00,702.000000,,2013-02-13 22:32:00,
2013-02-13 15:42:00,28.0,7.0,-100.00,NNE,15,12.0,25.0,41,0.00,,,0.00,702.000000,,2013-02-13 22:42:00,
2013-02-13 15:52:00,28.0,7.0,-100.00,NNE,15,12.0,25.0,41,0.00,,,0.00,702.000000,,2013-02-13 22:52:00,
2013-02-13 16:01:00,28.0,7.0,-100.00,NNE,15,12.0,25.0,41,0.00,,,0.00,702.000000,,2013-02-13 23:01:00,
2013-02-13 16:32:00,27.0,9.0,-100.00,NNE,24,10.0,22.0,46,0.00,,,0.00,473.000000,,2013-02-13 23:32:00,
2013-02-13 16:42:00,27.0,9.0,-100.00,NNE,24,10.0,22.0,46,0.00,,,0.00,473.000000,,2013-02-13 23:42:00,
2013-02-13 16:52:00,27.0,9.0,-100.00,NNE,24,10.0,22.0,46,0.00,,,0.00,473.000000,,2013-02-13 23:52:00,
2013-02-13 17:02:00,27.0,9.0,-100.00,NNE,24,10.0,22.0,46,0.00,,,0.00,473.000000,,2013-02-14 00:02:00,
2013-02-13 17:32:00,23.0,8.0,-100.00,NNE,21,10.0,22.0,52,0.00,,,0.00,197.000000,,2013-02-14 00:32:00,
2013-02-13 17:42:00,23.0,8.0,-100.00,NNE,21,10.0,22.0,52,0.00,,,0.00,197.000000,,2013-02-14 00:42:00,
2013-02-13 17:52:00,23.0,8.0,-100.00,NNE,21,10.0,22.0,52,0.00,,,0.00,197.000000,,2013-02-14 00:52:00,
2013-02-13 18:01:00,23.0,8.0,-100.00,NNE,21,10.0,22.0,52,0.00,,,0.00,197.000000,,2013-02-14 01:01:00,
2013-02-13 19:32:00,18.0,7.0,-100.00,North,349,7.0,14.0,61,-99.99,,,0.00,0.000000,,2013-02-14 02:32:00,
2013-02-13 19:42:00,18.0,7.0,-100.00,North,349,7.0,14.0,61,-99.99,,,0.00,0.000000,,2013-02-14 02:42:00,
2013-02-13 19:52:00,18.0,7.0,-100.00,North,349,7.0,14.0,61,-99.99,,,0.00,0.000000,,2013-02-14 02:52:00,
2013-02-13 20:02:00,18.0,7.0,-100.00,North,349,7.0,14.0,61,-99.99,,,0.00,0.000000,,2013-02-14 03:02:00,
2013-02-13 20:32:00,19.0,7.0,-100.00,NNW,336,5.0,24.0,58,0.00,,,0.00,0.000000,,2013-02-14 03:32:00,
2013-02-13 20:42:00,19.0,7.0,-100.00,NNW,336,5.0,24.0,58,0.00,,,0.00,0.000000,,2013-02-14 03:42:00,
2013-02-13 20:52:00,19.0,7.0,-100.00,NNW,336,5.0,24.0,58,0.00,,,0.00,0.000000,,2013-02-14 03:52:00,
2013-02-13 21:01:00,19.0,7.0,-100.00,NNW,336,5.0,24.0,58,0.00,,,0.00,0.000000,,2013-02-14 04:01:00,
2013-02-13 21:32:00,16.0,7.0,-100.00,North,359,5.0,11.0,68,0.00,,,0.00,0.000000,,2013-02-14 04:32:00,
2013-02-13 21:42:00,16.0,7.0,-100.00,North,359,5.0,11.0,68,0.00,,,0.00,0.000000,,2013-02-14 04:42:00,
2013-02-13 21:52:00,16.0,7.0,-100.00,North,359,5.0,11.0,68,0.00,,,0.00,0.000000,,2013-02-14 04:52:00,
2013-02-13 22:02:00,16.0,7.0,-100.00,North,359,5.0,11.0,68,0.00,,,0.00,0.000000,,2013-02-14 05:02:00,
2013-02-13 22:32:00,14.0,6.0,-100.00,NNW,335,2.0,13.0,69,0.00,,,0.00,0.000000,,2013-02-14 05:32:00,
2013-02-13 22:42:00,14.0,6.0,-100.00,NNW,335,2.0,13.0,69,0.00,,,0.00,0.000000,,2013-02-14 05:42:00,
2013-02-13 22:52:00,14.0,6.0,-100.00,NNW,335,2.0,13.0,69,0.00,,,0.00,0.000000,,2013-02-14 05:52:00,
2013-02-13 23:02:00,14.0,6.0,-100.00,NNW,335,2.0,13.0,69,0.00,,,0.00,0.000000,,2013-02-14 06:02:00,
2013-02-13 23:32:00,13.0,6.0,-100.00,WNW,303,2.0,5.0,72,0.00,,,0.00,0.000000,,2013-02-14 06:32:00,
2013-02-13 23:42:00,13.0,6.0,-100.00,WNW,303,2.0,5.0,72,0.00,,,0.00,0.000000,,2013-02-14 06:42:00,
2013-02-13 23:52:00,13.0,6.0,-100.00,WNW,303,2.0,5.0,72,0.00,,,0.00,0.000000,,2013-02-14 06:52:00,